Time;durP1;ratioP1;P1;durP2;ratioP2;P2;SDS_P1;SDS_P2;PMS_P1;PMS_P2;Temp;Humidity;BMP_temperature;BMP_pressure;BME280_temperature;BME280_humidity;BME280_pressure;Samples;Min_cycle;Max_cycle;Signal;HPM_P1;HPM_P2
2022/02/04 00:07:19;;;;;;;13.65;8.40;;;;;;;7.25;84.26;99850.08;2882057;82;21074;-76
2022/02/04 00:23:53;;;;;;;15.90;7.47;;;;;;;7.29;83.17;99844.95;2881709;82;21016;-70
2022/02/04 00:27:59;;;;;;;13.48;8.28;;;;;;;7.34;83.14;99840.61;2879826;82;21063;-75
2022/02/04 00:32:04;;;;;;;11.55;7.80;;;;;;;7.41;83.17;99831.73;2880185;82;21131;-73
2022/02/04 00:36:18;;;;;;;10.65;7.97;;;;;;;7.40;83.06;99833.55;2879219;82;21090;-77
2022/02/04 00:40:13;;;;;;;14.03;8.55;;;;;;;7.41;82.98;99834.37;2875454;82;21125;-74
2022/02/04 00:44:19;;;;;;;15.13;10.48;;;;;;;7.38;83.04;99836.80;2879586;82;21004;-75
2022/02/04 00:52:26;;;;;;;11.93;8.50;;;;;;;7.46;82.93;99825.60;2880727;82;20968;-72
2022/02/04 00:56:34;;;;;;;14.70;8.85;;;;;;;7.41;82.57;99827.77;2879676;82;21457;-77
2022/02/04 01:25:58;;;;;;;18.07;7.67;;;;;;;7.31;81.49;99804.30;2880185;82;21094;-77
2022/02/04 01:30:02;;;;;;;17.70;8.88;;;;;;;7.33;81.26;99799.73;2879399;82;21522;-78
2022/02/04 01:33:59;;;;;;;10.98;7.42;;;;;;;7.31;81.40;99789.75;2878920;82;21055;-73
2022/02/04 01:38:01;;;;;;;19.48;8.90;;;;;;;7.25;81.08;99781.80;2875725;82;21071;-77
2022/02/04 01:42:03;;;;;;;8.98;6.47;;;;;;;7.22;80.68;99780.71;2874086;82;21102;-76
2022/02/04 01:46:08;;;;;;;11.35;7.12;;;;;;;7.25;80.99;99764.10;2873590;82;21084;-73
2022/02/04 01:50:10;;;;;;;15.93;8.40;;;;;;;7.15;80.76;99761.81;2873916;82;21043;-77
2022/02/04 01:54:12;;;;;;;12.40;7.65;;;;;;;7.18;80.90;99753.64;2874671;82;21019;-72
2022/02/04 01:58:14;;;;;;;15.93;8.10;;;;;;;7.12;80.88;99755.44;2873918;82;21636;-75
2022/02/04 02:02:16;;;;;;;14.75;9.10;;;;;;;7.13;81.04;99751.83;2874150;82;21109;-77
2022/02/04 02:06:44;;;;;;;11.35;8.20;;;;;;;7.16;81.10;99755.56;2873693;82;21043;-76
2022/02/04 02:10:47;;;;;;;15.65;7.85;;;;;;;7.14;80.96;99745.58;2874733;82;21032;-73
2022/02/04 02:14:59;;;;;;;19.85;9.75;;;;;;;7.10;81.17;99739.67;2875290;82;21023;-78
2022/02/04 02:44:44;;;;;;;8.68;7.08;;;;;;;7.18;81.72;99721.89;2874389;82;21526;-78
2022/02/04 02:57:25;;;;;;;14.65;8.33;;;;;;;7.22;81.92;99729.95;2875018;82;21502;-74
2022/02/04 03:01:10;;;;;;;11.65;7.12;;;;;;;7.20;81.96;99727.91;2870290;82;21695;-71
2022/02/04 03:05:12;;;;;;;15.23;7.67;;;;;;;7.21;81.99;99724.30;2874578;82;21035;-75
2022/02/04 03:09:16;;;;;;;14.58;7.65;;;;;;;7.22;82.11;99728.63;2874248;82;21063;-75
2022/02/04 03:13:17;;;;;;;10.55;7.00;;;;;;;7.15;82.44;99734.04;2874340;82;21052;-78
2022/02/04 03:17:19;;;;;;;11.33;7.12;;;;;;;7.13;82.51;99728.03;2874391;82;21003;-74
2022/02/04 03:21:29;;;;;;;14.98;7.45;;;;;;;7.15;82.73;99735.36;2874743;82;21011;-70
2022/02/04 03:25:25;;;;;;;15.53;7.25;;;;;;;7.14;82.80;99729.71;2873224;82;21059;-73
2022/02/04 03:29:32;;;;;;;9.20;7.75;;;;;;;7.13;82.84;99734.14;2875092;82;21019;-72
2022/02/04 03:33:32;;;;;;;12.85;7.40;;;;;;;7.15;82.68;99733.55;2873296;82;21087;-75
2022/02/04 03:37:34;;;;;;;19.67;8.43;;;;;;;7.10;82.91;99733.55;2877939;82;21016;-74
2022/02/04 03:41:35;;;;;;;16.23;8.63;;;;;;;7.10;83.20;99737.52;2880534;82;21028;-74
2022/02/04 03:45:37;;;;;;;13.03;7.50;;;;;;;7.09;82.94;99734.52;2879450;82;21003;-77
2022/02/04 03:49:39;;;;;;;23.52;8.80;;;;;;;7.06;83.02;99732.08;2880200;82;21050;-70
2022/02/04 03:53:41;;;;;;;21.23;8.88;;;;;;;7.04;82.96;99731.36;2879714;82;21553;-69
2022/02/04 03:57:42;;;;;;;10.25;8.00;;;;;;;7.06;82.95;99730.30;2880066;82;21074;-76
2022/02/04 04:01:44;;;;;;;19.62;9.03;;;;;;;7.05;82.81;99731.72;2881524;82;21031;-78
2022/02/04 04:05:49;;;;;;;12.50;7.92;;;;;;;7.02;82.99;99738.10;2882084;82;21595;-71
2022/02/04 04:09:55;;;;;;;17.20;10.18;;;;;;;7.05;83.16;99739.19;2884937;82;21027;-71
2022/02/04 04:13:52;;;;;;;16.40;10.00;;;;;;;7.04;83.18;99741.94;2883152;82;21609;-79
2022/02/04 04:17:54;;;;;;;16.48;10.60;;;;;;;7.02;83.57;99745.17;2908560;81;21014;-73
2022/02/04 04:21:55;;;;;;;19.12;9.90;;;;;;;7.00;83.92;99735.56;2915230;80;21001;-71
2022/02/04 04:25:57;;;;;;;12.55;9.90;;;;;;;6.97;83.75;99735.80;2908083;81;21052;-71
2022/02/04 04:29:59;;;;;;;14.25;8.65;;;;;;;6.94;83.92;99729.89;2953973;80;21075;-69
2022/02/04 04:34:01;;;;;;;13.58;9.98;;;;;;;6.90;84.10;99726.66;2953952;80;21112;-71
2022/02/04 04:38:11;;;;;;;18.45;10.43;;;;;;;6.91;83.98;99724.38;2954089;80;21028;-70
2022/02/04 04:42:14;;;;;;;16.50;10.15;;;;;;;6.89;84.21;99719.69;2954042;80;21051;-69
2022/02/04 05:28:57;;;;;;;11.57;9.33;;;;;;;6.99;85.29;99729.91;2952957;80;21004;-73
2022/02/04 05:32:48;;;;;;;;;;;;;;;7.03;85.65;99731.85;2953735;80;21009;-68
2022/02/04 05:36:59;;;;;;;14.28;9.20;;;;;;;7.05;85.52;99734.36;2954845;80;20116;-69
2022/02/04 05:40:54;;;;;;;12.45;8.58;;;;;;;7.04;85.62;99741.94;2953815;80;21012;-73
2022/02/04 05:45:15;;;;;;;10.88;8.78;;;;;;;7.05;85.72;99745.80;2954347;80;21070;-69
2022/02/04 05:49:09;;;;;;;15.55;10.65;;;;;;;7.15;85.59;99758.67;2951878;80;20973;-74
2022/02/04 05:53:21;;;;;;;14.30;9.80;;;;;;;7.18;85.61;99750.99;2954263;80;21000;-75
2022/02/04 05:57:26;;;;;;;21.02;8.40;;;;;;;7.18;85.90;99762.07;2954341;80;21009;-73
2022/02/04 06:22:18;;;;;;;15.85;9.73;;;;;;;7.20;88.57;99780.81;2955261;80;21640;-75
2022/02/04 06:26:12;;;;;;;13.00;8.25;;;;;;;7.29;88.93;99781.45;2953172;80;20997;-71
2022/02/04 06:30:15;;;;;;;9.75;8.33;;;;;;;7.39;89.25;99779.41;2954171;80;21060;-68
2022/02/04 06:34:16;;;;;;;16.75;8.80;;;;;;;7.46;89.67;99780.61;2954816;80;20997;-68
2022/02/04 06:38:18;;;;;;;12.13;9.05;;;;;;;7.42;91.35;99781.81;2952859;80;21036;-73
2022/02/04 06:42:26;;;;;;;15.00;10.28;;;;;;;7.48;91.58;99784.02;2949278;80;21021;-76
2022/02/04 06:46:28;;;;;;;11.20;7.40;;;;;;;7.51;92.15;99784.23;2949030;80;21028;-72
2022/02/04 06:50:30;;;;;;;11.22;9.10;;;;;;;7.56;92.44;99792.19;2949946;80;20989;-71
2022/02/04 06:54:32;;;;;;;12.80;8.03;;;;;;;7.56;92.44;99794.84;2949428;80;21028;-70
2022/02/04 06:58:34;;;;;;;12.43;9.43;;;;;;;7.56;92.45;99796.63;2948948;80;21453;-67
2022/02/04 07:02:35;;;;;;;13.35;9.63;;;;;;;7.59;92.55;99801.71;2949380;80;21039;-75
2022/02/04 07:06:40;;;;;;;12.07;8.85;;;;;;;7.64;92.62;99806.62;2949561;80;21604;-69
2022/02/04 07:15:10;;;;;;;14.05;8.70;;;;;;;7.70;92.36;99797.73;2912266;80;20979;-69
2022/02/04 07:23:08;;;;;;;11.83;8.28;;;;;;;7.74;92.18;99803.64;2889122;82;21553;-68
2022/02/04 07:27:10;;;;;;;15.50;9.20;;;;;;;7.75;92.09;99803.14;2888707;82;21060;-72
2022/02/04 07:31:13;;;;;;;18.02;11.08;;;;;;;7.78;91.87;99801.61;2888850;81;21560;-67
2022/02/04 07:43:18;;;;;;;14.85;11.03;;;;;;;7.83;91.61;99805.56;2916421;81;21029;-70
2022/02/04 07:47:19;;;;;;;19.65;10.03;;;;;;;7.85;91.69;99800.98;2915865;81;21479;-68
2022/02/04 07:51:21;;;;;;;17.73;11.95;;;;;;;7.88;91.82;99801.73;2916062;81;20994;-71
2022/02/04 07:55:23;;;;;;;17.95;9.53;;;;;;;7.92;91.48;99807.14;2915571;81;21050;-68
2022/02/04 07:59:25;;;;;;;12.03;9.30;;;;;;;8.01;91.59;99813.02;2915961;81;21014;-71
2022/02/04 08:03:35;;;;;;;14.47;10.40;;;;;;;7.99;91.59;99810.98;2863016;81;21065;-68
2022/02/04 08:07:42;;;;;;;11.83;8.85;;;;;;;8.09;91.45;99810.63;2914639;81;20998;-69
2022/02/04 08:16:16;;;;;;;11.73;10.53;;;;;;;8.15;90.94;99812.78;2915641;81;21607;-69
2022/02/04 08:49:42;;;;;;;14.85;10.08;;;;;;;8.42;89.38;99832.73;2863483;83;21038;-68
2022/02/04 08:53:49;;;;;;;10.18;8.35;;;;;;;8.49;89.14;99838.89;2912986;81;21072;-71
2022/02/04 09:01:57;;;;;;;11.12;9.93;;;;;;;8.55;89.04;99836.62;2862787;83;21107;-68
2022/02/04 09:06:05;;;;;;;12.43;10.58;;;;;;;8.60;88.28;99836.73;2914509;80;21018;-70
2022/02/04 09:09:59;;;;;;;17.10;9.28;;;;;;;8.69;87.86;99832.84;2913764;81;21009;-69
2022/02/04 09:22:43;;;;;;;11.95;9.28;;;;;;;8.84;87.19;99824.11;2916091;81;21470;-71
2022/02/04 09:26:43;;;;;;;12.33;9.03;;;;;;;8.88;86.70;99823.38;2916075;80;21045;-68
2022/02/04 09:30:45;;;;;;;9.75;8.43;;;;;;;8.86;86.67;99825.33;2916068;81;21053;-68
2022/02/04 09:34:47;;;;;;;11.83;7.70;;;;;;;8.93;86.94;99821.66;2915809;81;21025;-69
2022/02/04 09:38:49;;;;;;;13.45;9.23;;;;;;;9.01;85.90;99819.23;2882461;82;21106;-68
2022/02/04 09:42:51;;;;;;;13.22;8.40;;;;;;;9.12;86.59;99823.14;2897098;82;21007;-68
2022/02/04 09:46:56;;;;;;;9.75;7.92;;;;;;;9.19;85.83;99821.33;2897620;82;21399;-70
2022/02/04 09:50:58;;;;;;;9.38;7.37;;;;;;;9.21;85.25;99815.40;2898298;82;20992;-74
2022/02/04 10:08:04;;;;;;;10.60;6.47;;;;;;;9.32;84.92;99831.75;2898146;82;20984;-69
2022/02/04 10:20:23;;;;;;;7.30;5.33;;;;;;;9.40;82.95;99817.33;2897238;82;21031;-72
2022/02/04 10:24:26;;;;;;;6.92;5.22;;;;;;;9.33;80.93;99805.56;2897454;82;21004;-73
2022/02/04 10:28:29;;;;;;;8.55;6.20;;;;;;;9.27;82.00;99805.11;2897591;81;20991;-71
2022/02/04 10:32:36;;;;;;;8.98;6.28;;;;;;;9.25;81.40;99808.86;2897324;82;21050;-73
2022/02/04 10:41:16;;;;;;;5.72;5.20;;;;;;;9.20;81.42;99800.45;2902169;82;21011;-69
2022/02/04 10:50:51;;;;;;;6.53;4.78;;;;;;;9.29;80.74;99787.25;2902373;82;21408;-71
2022/02/04 10:54:07;;;;;;;5.67;4.80;;;;;;;9.36;81.24;99776.09;2881820;82;21050;-69
2022/02/04 11:10:41;;;;;;;6.17;4.20;;;;;;;9.51;79.05;99774.80;2902579;81;21066;-71
2022/02/04 11:37:02;;;;;;;4.17;3.77;;;;;;;9.68;78.00;99736.66;2900326;81;21467;-73
2022/02/04 11:54:29;;;;;;;5.53;4.58;;;;;;;10.06;78.39;99735.10;2897109;82;21394;-69
2022/02/04 11:58:03;;;;;;;8.08;5.37;;;;;;;10.02;77.30;99737.66;2893194;82;21067;-68
2022/02/04 12:02:29;;;;;;;5.72;4.42;;;;;;;10.05;77.46;99733.89;2896443;82;21445;-71
2022/02/04 12:06:32;;;;;;;5.42;3.75;;;;;;;10.03;77.44;99731.86;2897295;82;21034;-69
2022/02/04 12:10:43;;;;;;;6.97;4.05;;;;;;;9.92;76.20;99724.84;2896619;82;21061;-70
2022/02/04 12:14:45;;;;;;;6.17;4.62;;;;;;;9.83;75.75;99714.54;2896502;82;21046;-71
2022/02/04 12:19:08;;;;;;;4.40;3.77;;;;;;;9.84;77.03;99708.25;2898152;82;21584;-71
2022/02/04 12:23:29;;;;;;;5.05;3.80;;;;;;;9.77;77.43;99714.59;2896876;82;21039;-74
2022/02/04 12:27:37;;;;;;;8.85;3.72;;;;;;;9.75;76.85;99715.72;2897415;82;21486;-70
2022/02/04 12:31:47;;;;;;;8.30;4.45;;;;;;;9.75;77.37;99713.88;2897040;82;21027;-72
2022/02/04 12:35:44;;;;;;;;;;;;;;;9.79;77.94;99709.16;2898850;82;21007;-69
2022/02/04 12:39:47;;;;;;;5.35;3.67;;;;;;;9.84;78.02;99713.56;2898237;82;20087;-71
2022/02/04 12:43:53;;;;;;;5.87;4.12;;;;;;;9.83;77.69;99705.24;2896701;82;20996;-72
2022/02/04 12:47:59;;;;;;;6.10;4.07;;;;;;;9.86;77.88;99704.49;2897858;82;21058;-71
2022/02/04 12:52:19;;;;;;;5.30;3.55;;;;;;;9.78;76.90;99704.31;2896692;82;21066;-68
2022/02/04 12:56:34;;;;;;;4.33;3.92;;;;;;;9.77;77.34;99698.65;2897066;82;21031;-71
2022/02/04 13:09:22;;;;;;;6.00;4.28;;;;;;;9.67;76.10;99694.63;2889392;82;21035;-70
2022/02/04 13:13:06;;;;;;;6.08;3.65;;;;;;;9.56;76.66;99684.95;2859000;82;21101;-68
2022/02/04 13:17:08;;;;;;;4.83;4.28;;;;;;;9.60;77.10;99678.05;2890659;82;21043;-70
2022/02/04 13:21:13;;;;;;;5.25;4.33;;;;;;;9.62;76.73;99676.09;2889822;82;21019;-69
2022/02/04 13:25:22;;;;;;;5.20;3.83;;;;;;;9.65;76.74;99679.83;2889768;82;21012;-72
2022/02/04 13:29:26;;;;;;;6.58;4.33;;;;;;;9.55;75.08;99673.98;2889638;82;21101;-70
2022/02/04 13:33:41;;;;;;;4.42;4.03;;;;;;;9.56;75.91;99670.35;2889426;82;21023;-72
2022/02/04 13:37:49;;;;;;;3.92;2.72;;;;;;;9.54;75.11;99666.17;2889547;82;21051;-70
2022/02/04 13:46:05;;;;;;;5.87;3.35;;;;;;;9.57;75.11;99653.95;2861716;82;21039;-67
2022/02/04 13:58:54;;;;;;;3.83;3.02;;;;;;;9.69;73.22;99633.43;2888571;82;21062;-66
2022/02/04 14:02:57;;;;;;;2.87;2.60;;;;;;;9.69;72.14;99634.77;2885812;82;21365;-67
2022/02/04 14:07:10;;;;;;;2.80;1.95;;;;;;;9.75;72.20;99636.04;2861132;82;21020;-75
2022/02/04 14:11:12;;;;;;;5.17;3.72;;;;;;;9.82;72.25;99628.69;2887912;82;21039;-69
2022/02/04 14:15:14;;;;;;;2.58;2.27;;;;;;;9.90;72.14;99630.66;2888099;82;20975;-71
2022/02/04 14:19:15;;;;;;;5.78;2.52;;;;;;;9.82;71.30;99619.39;2887825;82;20980;-69
2022/02/04 14:23:17;;;;;;;3.05;2.60;;;;;;;9.83;70.56;99618.91;2886398;81;21058;-68
2022/02/04 14:27:19;;;;;;;3.70;2.72;;;;;;;9.79;71.06;99619.66;2886516;82;20992;-69
2022/02/04 14:31:34;;;;;;;2.62;2.35;;;;;;;9.77;71.07;99617.64;2887304;82;21702;-70
2022/02/04 14:35:39;;;;;;;4.97;2.37;;;;;;;9.77;71.00;99618.97;2843095;82;20945;-68
2022/02/04 15:01:08;;;;;;;3.33;2.55;;;;;;;9.69;72.10;99601.56;2842634;83;21066;-67
2022/02/04 15:05:08;;;;;;;6.17;2.15;;;;;;;9.68;72.11;99589.27;2842445;81;20995;-69
2022/02/04 15:09:11;;;;;;;3.70;2.50;;;;;;;9.57;71.13;99592.88;2842926;83;21579;-67
2022/02/04 15:13:15;;;;;;;3.12;2.25;;;;;;;9.55;71.71;99590.34;2843024;83;21051;-67
2022/02/04 15:17:17;;;;;;;2.42;2.22;;;;;;;9.47;71.75;99588.87;2843478;83;21054;-69
2022/02/04 15:21:20;;;;;;;1.92;1.32;;;;;;;9.45;71.42;99586.84;2843480;83;20987;-68
2022/02/04 15:25:23;;;;;;;2.52;1.75;;;;;;;9.28;69.11;99573.72;2842799;83;21141;-67
2022/02/04 15:29:24;;;;;;;2.92;2.72;;;;;;;9.30;69.77;99571.76;2842750;83;21046;-67
2022/02/04 15:33:30;;;;;;;1.40;1.30;;;;;;;9.20;69.25;99566.92;2842639;82;21003;-68
2022/02/04 15:37:30;;;;;;;4.22;1.15;;;;;;;9.16;70.37;99569.50;2842692;83;21342;-68
2022/02/04 15:41:33;;;;;;;6.67;2.83;;;;;;;9.18;70.05;99563.06;2840596;83;21016;-68
2022/02/04 15:49:57;;;;;;;2.37;1.90;;;;;;;9.11;69.28;99552.14;2838396;83;21040;-68
2022/02/04 15:53:57;;;;;;;3.98;2.17;;;;;;;9.11;70.31;99544.69;2837736;83;21071;-66
2022/02/04 16:06:00;;;;;;;5.87;3.00;;;;;;;9.06;70.56;99527.02;2886898;82;21406;-68
2022/02/04 16:14:17;;;;;;;2.60;2.35;;;;;;;9.06;70.13;99521.71;2833459;82;20977;-67
2022/02/04 16:18:20;;;;;;;6.20;3.25;;;;;;;9.09;70.65;99521.44;2887034;82;20992;-67
2022/02/04 16:22:33;;;;;;;5.25;4.53;;;;;;;9.04;71.52;99502.41;2886676;82;21004;-70
2022/02/04 16:30:32;;;;;;;4.22;3.08;;;;;;;8.99;71.76;99505.48;2887632;82;21019;-68
2022/02/04 16:34:34;;;;;;;8.10;5.50;;;;;;;8.96;72.02;99505.27;2887422;82;21046;-66
2022/02/04 16:38:36;;;;;;;9.25;5.80;;;;;;;8.90;72.10;99507.61;2887633;82;21458;-66
2022/02/04 16:42:37;;;;;;;8.93;4.92;;;;;;;8.85;72.65;99512.83;2891900;82;21102;-67
2022/02/04 16:46:39;;;;;;;6.90;3.70;;;;;;;8.86;72.71;99511.03;2890943;82;21087;-73
2022/02/04 16:50:44;;;;;;;5.95;3.85;;;;;;;8.81;72.80;99502.62;2889004;82;21709;-74
2022/02/04 16:54:47;;;;;;;6.15;3.83;;;;;;;8.74;72.18;99487.72;2888429;82;20984;-71
2022/02/04 16:58:48;;;;;;;4.00;3.60;;;;;;;8.80;72.06;99492.52;2888173;82;21015;-69
2022/02/04 17:02:59;;;;;;;4.53;3.92;;;;;;;8.80;72.56;99503.59;2888247;82;21483;-72
2022/02/04 17:07:03;;;;;;;6.30;4.17;;;;;;;8.73;72.95;99500.63;2887750;82;21531;-71
2022/02/04 17:11:13;;;;;;;8.53;6.42;;;;;;;8.76;73.37;99504.84;2888291;82;21937;-73
2022/02/04 17:15:10;;;;;;;10.35;7.05;;;;;;;8.75;73.58;99497.38;2886413;82;20996;-71
2022/02/04 17:19:20;;;;;;;12.68;7.95;;;;;;;8.71;73.80;99494.16;2889011;82;21030;-72
2022/02/04 17:24:01;;;;;;;12.47;8.25;;;;;;;8.71;73.99;99499.92;2888136;82;21027;-69
2022/02/04 17:27:26;;;;;;;20.10;12.43;;;;;;;8.64;74.45;99482.88;2867632;82;21063;-69
2022/02/04 17:31:27;;;;;;;20.37;11.78;;;;;;;8.63;73.64;99489.98;2914247;81;21021;-68
2022/02/04 17:35:29;;;;;;;26.20;15.85;;;;;;;8.62;73.42;99479.02;2914303;80;21087;-66
2022/02/04 17:39:31;;;;;;;18.90;11.93;;;;;;;8.64;73.08;99475.75;2881891;82;21000;-67
2022/02/04 17:43:33;;;;;;;16.65;8.88;;;;;;;8.60;72.89;99479.65;2913665;81;21096;-67
2022/02/04 17:47:35;;;;;;;22.00;9.50;;;;;;;8.59;71.90;99483.27;2882245;82;21039;-67
2022/02/04 17:52:23;;;;;;;15.48;11.03;;;;;;;8.61;71.51;99480.00;2881281;82;21090;-69
2022/02/04 17:55:52;;;;;;;;;;;;;;;8.62;71.28;99480.35;2912140;81;21050;-70
2022/02/04 18:08:17;;;;;;;14.27;8.93;;;;;;;8.72;71.72;99477.73;2913936;81;21073;-70
2022/02/04 18:12:24;;;;;;;12.73;8.00;;;;;;;8.72;71.61;99477.73;2882353;82;21600;-70
2022/02/04 18:16:24;;;;;;;14.65;9.90;;;;;;;8.70;71.64;99475.23;2913039;81;21010;-67
2022/02/04 18:20:26;;;;;;;19.92;11.25;;;;;;;8.70;71.91;99473.91;2860891;83;21006;-69
2022/02/04 18:24:28;;;;;;;20.32;12.63;;;;;;;8.67;71.97;99482.14;2882254;82;22426;-67
2022/02/04 18:28:31;;;;;;;21.70;13.48;;;;;;;8.67;72.12;99475.52;2913648;81;21017;-66
2022/02/04 18:32:35;;;;;;;14.73;10.55;;;;;;;8.69;72.36;99484.64;2913042;81;21034;-67
2022/02/04 18:36:37;;;;;;;11.63;8.20;;;;;;;8.64;72.62;99480.23;2912929;81;21037;-66
2022/02/04 18:44:48;;;;;;;17.75;9.90;;;;;;;8.55;72.81;99463.31;2887312;81;21039;-70
2022/02/04 18:48:51;;;;;;;27.93;19.00;;;;;;;8.60;72.79;99458.44;2885614;82;21023;-69
2022/02/04 19:01:02;;;;;;;24.45;15.13;;;;;;;8.55;72.92;99461.98;2887290;82;21126;-71
2022/02/04 19:05:18;;;;;;;21.12;14.18;;;;;;;8.58;73.13;99451.11;2903971;81;20990;-67
2022/02/04 19:09:11;;;;;;;27.60;15.95;;;;;;;8.51;73.28;99456.10;2902303;81;21432;-68
2022/02/04 19:13:21;;;;;;;29.77;16.70;;;;;;;8.48;73.58;99449.71;2904855;81;20975;-66
2022/02/04 19:17:31;;;;;;;18.85;11.75;;;;;;;8.52;73.58;99439.73;2899331;81;21026;-69
2022/02/04 19:22:19;;;;;;;24.20;13.60;;;;;;;8.51;73.82;99428.77;2903802;81;21089;-66
2022/02/04 19:25:38;;;;;;;24.10;17.12;;;;;;;8.50;74.14;99428.42;2876929;81;20972;-67
2022/02/04 19:29:45;;;;;;;28.38;16.97;;;;;;;8.48;74.37;99419.73;2876382;82;21070;-69
2022/02/04 19:33:42;;;;;;;19.55;14.10;;;;;;;8.43;74.14;99419.63;2882159;81;20990;-67
2022/02/04 19:37:44;;;;;;;25.92;16.75;;;;;;;8.42;73.72;99412.65;2854777;83;21020;-68
2022/02/04 19:41:57;;;;;;;22.62;16.55;;;;;;;8.42;73.57;99413.15;2854159;83;21049;-67
2022/02/04 19:45:55;;;;;;;59.83;34.03;;;;;;;8.34;73.95;99411.16;2823318;84;21751;-68
2022/02/04 19:50:14;;;;;;;28.62;17.80;;;;;;;8.26;74.29;99403.05;2855189;83;21517;-67
2022/02/04 19:54:31;;;;;;;21.17;12.93;;;;;;;8.22;74.00;99417.04;2822938;84;21031;-67
2022/02/04 20:07:04;;;;;;;24.50;14.37;;;;;;;8.19;74.37;99401.88;2859828;80;21475;-65
2022/02/04 20:23:36;;;;;;;18.73;9.80;;;;;;;8.13;73.56;99389.53;2875486;82;21059;-68
2022/02/04 20:27:39;;;;;;;14.13;9.53;;;;;;;8.16;73.35;99395.06;2875116;82;21028;-67
2022/02/04 20:31:38;;;;;;;24.47;11.40;;;;;;;8.14;73.61;99381.94;2875314;82;21048;-68
2022/02/04 20:35:45;;;;;;;10.98;9.20;;;;;;;8.08;73.29;99375.84;2905660;81;21551;-69
2022/02/04 20:39:49;;;;;;;13.30;7.97;;;;;;;8.05;72.35;99375.27;2871639;82;21079;-72
2022/02/04 20:43:48;;;;;;;11.93;8.58;;;;;;;7.97;72.24;99342.34;2879244;81;21098;-73
2022/02/04 20:47:55;;;;;;;15.40;8.88;;;;;;;8.09;72.22;99344.41;2886029;82;21059;-70
2022/02/04 20:51:54;;;;;;;10.70;7.08;;;;;;;8.13;71.95;99339.67;2886241;82;21051;-68
2022/02/04 20:55:55;;;;;;;5.85;5.17;;;;;;;8.21;71.98;99336.36;2886964;82;21507;-69
2022/02/04 20:59:58;;;;;;;10.03;7.75;;;;;;;8.20;72.18;99318.78;2887264;82;21003;-70
2022/02/04 21:04:04;;;;;;;9.65;6.78;;;;;;;8.25;71.97;99314.77;2886839;82;21083;-69
2022/02/04 21:16:30;;;;;;;11.73;9.20;;;;;;;8.20;72.21;99296.27;2887437;82;21039;-68
2022/02/04 21:20:31;;;;;;;9.03;6.85;;;;;;;8.22;71.93;99293.84;2887263;82;21062;-67
2022/02/04 21:24:35;;;;;;;11.20;8.15;;;;;;;8.21;72.15;99293.97;2886693;82;21086;-66
2022/02/04 21:28:38;;;;;;;14.03;8.88;;;;;;;8.22;72.26;99295.64;2888288;82;20988;-68
2022/02/04 21:32:45;;;;;;;12.28;7.05;;;;;;;8.22;72.10;99281.07;2888037;82;21542;-72
2022/02/04 21:37:00;;;;;;;9.33;5.62;;;;;;;8.22;71.83;99281.07;2887931;82;29249;-66
2022/02/04 21:40:58;;;;;;;8.13;4.83;;;;;;;8.21;72.04;99276.75;2887701;82;21079;-67
2022/02/04 21:45:03;;;;;;;6.95;4.60;;;;;;;8.26;72.13;99267.42;2888257;82;21079;-71
2022/02/04 21:49:03;;;;;;;8.63;5.65;;;;;;;8.22;72.22;99271.80;2888169;82;21063;-69
2022/02/04 21:53:04;;;;;;;12.90;7.22;;;;;;;8.28;72.85;99284.52;2888023;82;21573;-72
2022/02/04 21:57:06;;;;;;;7.47;5.42;;;;;;;8.18;73.28;99273.91;2887834;82;21481;-68
2022/02/04 22:01:08;;;;;;;8.70;7.78;;;;;;;8.25;73.46;99282.97;2888734;82;21616;-69
2022/02/04 22:05:10;;;;;;;14.30;7.87;;;;;;;8.25;73.57;99279.00;2888219;82;20999;-69
2022/02/04 22:09:31;;;;;;;14.53;9.08;;;;;;;8.22;74.08;99267.35;2889224;82;21050;-68
2022/02/04 22:13:33;;;;;;;9.13;6.80;;;;;;;8.18;73.53;99251.86;2886499;82;21059;-67
2022/02/04 22:17:37;;;;;;;12.28;7.05;;;;;;;8.14;73.12;99246.84;2887285;82;21019;-68
2022/02/04 22:25:47;;;;;;;4.28;3.37;;;;;;;8.15;73.48;99239.23;2889060;82;22506;-71
2022/02/04 22:30:00;;;;;;;4.55;3.10;;;;;;;8.10;73.78;99237.48;2888941;82;21023;-68
2022/02/04 22:34:17;;;;;;;9.38;4.87;;;;;;;8.03;74.40;99241.63;2888019;82;21379;-70
2022/02/04 22:42:38;;;;;;;7.33;5.17;;;;;;;8.05;74.88;99235.71;2888640;82;21695;-68
2022/02/04 22:50:56;;;;;;;6.92;4.80;;;;;;;8.07;75.47;99228.50;2864918;82;20968;-71
2022/02/04 22:55:18;;;;;;;7.33;5.15;;;;;;;8.10;75.95;99217.63;2885863;82;21039;-70
2022/02/04 22:58:56;;;;;;;5.97;4.33;;;;;;;8.08;76.18;99216.92;2883620;82;21091;-69
2022/02/04 23:02:57;;;;;;;3.70;3.05;;;;;;;8.12;75.86;99218.80;2888927;82;21085;-70
2022/02/04 23:07:00;;;;;;;4.08;1.82;;;;;;;8.10;75.85;99214.97;2888102;82;21003;-69
2022/02/04 23:11:06;;;;;;;2.55;2.30;;;;;;;8.13;75.63;99207.22;2887978;82;21043;-71
2022/02/04 23:15:10;;;;;;;3.33;2.20;;;;;;;8.25;74.96;99205.28;2886818;82;21043;-75
2022/02/04 23:19:17;;;;;;;4.05;2.15;;;;;;;8.37;74.47;99204.70;2888919;82;21035;-73
2022/02/04 23:23:15;;;;;;;3.27;2.12;;;;;;;8.43;74.10;99200.16;2887989;82;21039;-74
2022/02/04 23:27:22;;;;;;;5.25;2.50;;;;;;;8.46;73.76;99202.53;2887019;82;21101;-68
2022/02/04 23:52:35;;;;;;;0.95;0.90;;;;;;;8.83;72.85;99204.51;2893607;82;21035;-71
2022/02/04 23:56:36;;;;;;;3.15;1.85;;;;;;;8.92;73.03;99208.13;2893598;82;21066;-68
